createdAt,value
2019-02-03T00:00:19.259Z,41.2
2019-02-03T00:02:18.912Z,37.6
2019-02-03T00:04:19.538Z,42.5
2019-02-03T00:06:18.946Z,40.7
2019-02-03T00:08:18.564Z,43.3
2019-02-03T00:10:18.664Z,44.1
2019-02-03T00:12:19.316Z,51.3
2019-02-03T00:14:18.959Z,38.7
2019-02-03T00:16:19.251Z,42.6
2019-02-03T00:18:18.991Z,52.6
2019-02-03T00:20:18.661Z,41
2019-02-03T00:22:19.443Z,53.5
2019-02-03T00:24:19.131Z,48.9
2019-02-03T00:26:19.129Z,50.9
2019-02-03T00:28:18.927Z,41.8
2019-02-03T00:30:18.613Z,44.7
2019-02-03T00:32:19.281Z,42.2
2019-02-03T00:34:18.961Z,43.4
2019-02-03T00:36:19.336Z,47.4
2019-02-03T00:38:25.111Z,42.3
2019-02-03T00:40:19.332Z,47.5
2019-02-03T00:42:18.982Z,47.6
2019-02-03T00:44:18.960Z,45.8
2019-02-03T00:46:19.182Z,46.8
2019-02-03T00:48:18.925Z,46.7
2019-02-03T00:50:19.628Z,55.6
2019-02-03T00:52:19.259Z,52.1
2019-02-03T00:54:19.156Z,42.7
2019-02-03T00:56:18.837Z,36.6
2019-02-03T00:58:19.483Z,42.8
2019-02-03T01:00:19.146Z,56.4
2019-02-03T01:02:19.010Z,46.2
2019-02-03T01:04:18.925Z,49.3
2019-02-03T01:06:18.862Z,51.9
2019-02-03T01:08:19.495Z,51.2
2019-02-03T01:10:18.931Z,60.4
2019-02-03T01:12:18.851Z,52.5
2019-02-03T01:14:19.495Z,51.6
2019-02-03T01:16:18.916Z,55.6
2019-02-03T01:18:18.843Z,54.6
2019-02-03T01:20:18.771Z,58.2
2019-02-03T01:22:19.406Z,60.5
2019-02-03T01:24:19.056Z,64.5
2019-02-03T01:26:19.666Z,51.7
2019-02-03T01:28:19.444Z,54.1
2019-02-03T01:30:19.201Z,59.9
2019-02-03T01:32:18.943Z,48.2
2019-02-03T01:34:18.772Z,57.9
2019-02-03T01:36:19.121Z,45.9
2019-02-03T01:38:18.811Z,62.9
2019-02-03T01:40:18.956Z,62.6
2019-02-03T01:42:19.315Z,68.3
2019-02-03T01:44:18.958Z,60.1
2019-02-03T01:46:18.958Z,55
2019-02-03T01:48:18.681Z,51.2
2019-02-03T01:50:19.354Z,50.5
2019-02-03T01:52:19.016Z,57.1
2019-02-03T01:54:18.660Z,57.4
2019-02-03T01:56:18.962Z,48.8
2019-02-03T01:58:18.594Z,60
2019-02-03T02:00:19.225Z,52.6
2019-02-03T02:02:18.877Z,56.1
2019-02-03T02:04:19.516Z,68.8
2019-02-03T02:06:18.819Z,45
2019-02-03T02:08:19.466Z,51.3
2019-02-03T02:10:19.593Z,50.3
2019-02-03T02:12:19.243Z,60.5
2019-02-03T02:14:18.902Z,37.4
2019-02-03T02:16:18.694Z,46.4
2019-02-03T02:18:19.455Z,50.3
2019-02-03T02:20:19.083Z,43.5
2019-02-03T02:22:18.739Z,57
2019-02-03T02:24:19.424Z,45.6
2019-02-03T02:26:18.898Z,53.3
2019-02-03T02:28:19.541Z,57.1
2019-02-03T02:30:19.432Z,55.1
2019-02-03T02:32:19.099Z,41.1
2019-02-03T02:34:18.774Z,54
2019-02-03T02:36:19.065Z,43.3
2019-02-03T02:38:18.700Z,49.8
2019-02-03T02:40:18.881Z,48.2
2019-02-03T02:42:19.550Z,49.2
2019-02-03T02:44:19.201Z,49.4
2019-02-03T02:46:18.824Z,49.6
2019-02-03T02:48:19.479Z,48.2
2019-02-03T02:50:19.243Z,64.4
2019-02-03T02:52:18.912Z,61.4
2019-02-03T02:54:19.684Z,49
2019-02-03T02:56:19.512Z,46.9
2019-02-03T02:58:19.180Z,50.9
2019-02-03T03:00:18.835Z,63.6
2019-02-03T03:02:19.462Z,51.7
2019-02-03T03:04:19.099Z,57.2
2019-02-03T03:06:19.498Z,63.3
2019-02-03T03:08:20.067Z,61.5
2019-02-03T03:10:19.158Z,54.8
2019-02-03T03:12:18.806Z,63.3
2019-02-03T03:14:19.439Z,64.5
2019-02-03T03:16:18.751Z,72.4
2019-02-03T03:18:19.445Z,51.9
2019-02-03T03:20:19.115Z,61.6
2019-02-03T03:22:18.758Z,73.1
2019-02-03T03:24:19.389Z,62.2
2019-02-03T03:26:19.274Z,51
2019-02-03T03:28:18.902Z,56.8
2019-02-03T03:30:19.562Z,53.6
2019-02-03T03:32:19.187Z,59.7
2019-02-03T03:34:18.830Z,64.4
2019-02-03T03:36:18.657Z,54.6
2019-02-03T03:38:32.570Z,60.4
2019-02-03T03:40:18.762Z,54.8
2019-02-03T03:42:19.406Z,61.5
2019-02-03T03:44:19.048Z,51.9
2019-02-03T03:46:18.843Z,65.3
2019-02-03T03:48:19.492Z,59.5
2019-02-03T03:50:19.199Z,57
2019-02-03T03:52:19.159Z,56.1
2019-02-03T03:54:19.167Z,60.8
2019-02-03T03:56:19.113Z,68.2
2019-02-03T03:58:18.746Z,50.9
2019-02-03T04:00:19.743Z,65.6
2019-02-03T04:02:18.777Z,46.7
2019-02-03T04:04:19.409Z,57.5
2019-02-03T04:06:19.160Z,60.9
2019-02-03T04:08:19.137Z,59.9
2019-02-03T04:10:19.537Z,58.7
2019-02-03T04:12:19.163Z,67.9
2019-02-03T04:14:18.804Z,52.7
2019-02-03T04:16:18.933Z,59.8
2019-02-03T04:18:18.862Z,60.5
2019-02-03T04:20:19.489Z,67
2019-02-03T04:22:19.129Z,67.6
2019-02-03T04:24:19.078Z,41.8
2019-02-03T04:26:19.293Z,73.6
2019-02-03T04:28:18.908Z,69.2
2019-02-03T04:30:19.597Z,62.2
2019-02-03T04:32:19.613Z,65.4
2019-02-03T04:34:18.564Z,72.4
2019-02-03T04:36:19.326Z,60.2
2019-02-03T04:38:18.973Z,62.8
2019-02-03T04:40:19.348Z,59
2019-02-03T04:42:19.263Z,66
2019-02-03T04:44:18.913Z,85.1
2019-02-03T04:46:19.206Z,74.5
2019-02-03T04:48:19.193Z,80.8
2019-02-03T04:50:19.209Z,67.4
2019-02-03T04:52:19.316Z,82.9
2019-02-03T04:54:18.965Z,75.6
2019-02-03T04:56:18.986Z,75.8
2019-02-03T04:58:18.865Z,49.1
2019-02-03T05:00:19.522Z,73.3
2019-02-03T05:02:19.198Z,78.5
2019-02-03T05:04:19.144Z,72.4
2019-02-03T05:06:18.691Z,74.2
2019-02-03T05:08:19.306Z,70.7
2019-02-03T05:10:19.375Z,67
2019-02-03T05:12:19.480Z,77.5
2019-02-03T05:14:19.408Z,74.4
2019-02-03T05:16:18.655Z,63.9
2019-02-03T05:18:19.336Z,69.8
2019-02-03T05:20:19.234Z,76.9
2019-02-03T05:22:19.123Z,85.6
2019-02-03T05:24:18.743Z,83.4
2019-02-03T05:26:18.991Z,84.9
2019-02-03T05:28:18.932Z,83
2019-02-03T05:30:18.862Z,85.8
2019-02-03T05:32:19.473Z,85.1
2019-02-03T05:34:19.081Z,75.7
2019-02-03T05:36:19.443Z,82.3
2019-02-03T05:38:19.157Z,67
2019-02-03T05:40:19.280Z,74.8
2019-02-03T05:42:18.928Z,74.6
2019-02-03T05:44:18.835Z,75.3
2019-02-03T05:46:19.400Z,74.9
2019-02-03T05:48:19.044Z,78
2019-02-03T05:50:18.709Z,79.5
2019-02-03T05:52:19.364Z,62.5
2019-02-03T05:54:19.005Z,94.5
2019-02-03T05:56:19.375Z,88.9
2019-02-03T05:58:18.984Z,81.2
2019-02-03T06:00:18.627Z,77
2019-02-03T06:02:19.251Z,74.6
2019-02-03T06:04:18.862Z,68.6
2019-02-03T06:06:18.634Z,74.5
2019-02-03T06:08:19.263Z,77.6
2019-02-03T06:10:19.398Z,68.5
2019-02-03T06:12:19.018Z,67.6
2019-02-03T06:14:18.662Z,65.3
2019-02-03T06:16:18.571Z,77
2019-02-03T06:18:19.262Z,73.4
2019-02-03T06:20:18.903Z,74.8
2019-02-03T06:22:19.527Z,61.9
2019-02-03T06:24:19.193Z,77.9
2019-02-03T06:26:18.855Z,64.3
2019-02-03T06:28:19.479Z,76.5
2019-02-03T06:30:19.114Z,65.1
2019-02-03T06:32:18.739Z,65.6
2019-02-03T06:34:19.358Z,74.3
2019-02-03T06:36:18.645Z,51.7
2019-02-03T06:38:19.305Z,74.3
2019-02-03T06:40:19.400Z,68.1
2019-02-03T06:42:19.031Z,65.9
2019-02-03T06:44:18.656Z,56.5
2019-02-03T06:46:19.471Z,71.9
2019-02-03T06:48:19.262Z,65.1
2019-02-03T06:50:18.898Z,62.8
2019-02-03T06:52:19.495Z,61.1
2019-02-03T06:54:19.094Z,59.1
2019-02-03T06:56:18.945Z,62.3
2019-02-03T06:58:18.647Z,68.7
2019-02-03T07:00:19.282Z,64.6
2019-02-03T07:02:18.920Z,62.1
2019-02-03T07:04:19.687Z,69.5
2019-02-03T07:06:19.044Z,79.7
2019-02-03T07:08:18.687Z,74.3
2019-02-03T07:10:18.798Z,69.8
2019-02-03T07:12:19.399Z,64.1
2019-02-03T07:14:19.033Z,63.4
2019-02-03T07:16:18.950Z,83.9
2019-02-03T07:18:18.618Z,55.8
2019-02-03T07:20:19.272Z,70.3
2019-02-03T07:22:18.893Z,55.8
2019-02-03T07:24:19.522Z,58.9
2019-02-03T07:26:18.921Z,71.3
2019-02-03T07:28:19.543Z,72.8
2019-02-03T07:30:19.230Z,74.5
2019-02-03T07:32:18.856Z,62.2
2019-02-03T07:34:19.479Z,67.1
2019-02-03T07:36:19.247Z,62.9
2019-02-03T07:38:18.863Z,64.9
2019-02-03T07:40:19.033Z,53.6
2019-02-03T07:42:18.693Z,66.9
2019-02-03T07:44:19.302Z,69.4
2019-02-03T07:46:19.522Z,63.3
2019-02-03T07:48:19.166Z,79.6
2019-02-03T07:50:18.789Z,58.5
2019-02-03T07:52:19.413Z,56.6
2019-02-03T07:54:19.053Z,69.3
2019-02-03T07:56:19.061Z,57.4
2019-02-03T07:58:18.689Z,56
2019-02-03T08:00:19.325Z,60.1
2019-02-03T08:02:18.950Z,56.1
2019-02-03T08:04:18.601Z,49.9
2019-02-03T08:06:19.009Z,73.2
2019-02-03T08:08:18.626Z,58.3
2019-02-03T08:10:29.915Z,36.4
2019-02-03T08:12:19.557Z,50.5
2019-02-03T08:14:19.213Z,55.7
2019-02-03T08:16:18.842Z,57.1
2019-02-03T08:18:19.562Z,51.1
2019-02-03T08:20:19.197Z,54.2
2019-02-03T08:22:18.823Z,69
2019-02-03T08:24:19.462Z,61.2
2019-02-03T08:26:18.788Z,48.9
2019-02-03T08:28:19.400Z,46.3
2019-02-03T08:30:19.036Z,45.2
2019-02-03T08:32:18.662Z,53.4
2019-02-03T08:34:19.270Z,46.1
2019-02-03T08:36:19.512Z,55.1
2019-02-03T08:38:19.161Z,41.6
2019-02-03T08:40:19.250Z,53.5
2019-02-03T08:42:18.893Z,41.3
2019-02-03T08:44:19.511Z,53
2019-02-03T08:46:18.777Z,58
2019-02-03T08:48:19.385Z,52.5
2019-02-03T08:50:19.037Z,51.6
2019-02-03T08:52:18.652Z,45.3
2019-02-03T08:54:19.272Z,30.6
2019-02-03T08:56:19.058Z,54.2
2019-02-03T08:58:18.698Z,55
2019-02-03T09:00:19.363Z,36.6
2019-02-03T09:02:19.015Z,33.2
2019-02-03T09:04:18.643Z,50
2019-02-03T09:06:18.688Z,47.5
2019-02-03T09:08:19.298Z,41.6
2019-02-03T09:10:19.364Z,46.1
2019-02-03T09:12:18.973Z,53.8
2019-02-03T09:14:18.598Z,43.9
2019-02-03T09:16:19.435Z,46.3
2019-02-03T09:18:19.137Z,43
2019-02-03T09:20:18.788Z,41.1
2019-02-03T09:22:19.415Z,49.6
2019-02-03T09:24:19.019Z,48
2019-02-03T09:26:18.783Z,50.1
2019-02-03T09:28:19.542Z,47.2
2019-02-03T09:30:19.178Z,39.8
2019-02-03T09:32:18.825Z,47.5
2019-02-03T09:34:19.497Z,51.5
2019-02-03T09:36:19.266Z,48.8
2019-02-03T09:38:18.894Z,39.6
2019-02-03T09:40:18.984Z,36.9
2019-02-03T09:42:18.582Z,43.1
2019-02-03T09:44:19.210Z,36.1
2019-02-03T09:46:18.596Z,38.1
2019-02-03T09:48:19.230Z,39.2
2019-02-03T09:50:18.883Z,31
2019-02-03T09:52:19.487Z,37.5
2019-02-03T09:54:19.113Z,36.1
2019-02-03T09:56:18.881Z,34.2
2019-02-03T09:58:19.507Z,42.6
2019-02-03T10:00:19.146Z,33.7
2019-02-03T10:02:19.024Z,36.1
2019-02-03T10:04:18.644Z,40.3
2019-02-03T10:06:18.895Z,48.1
2019-02-03T10:08:19.508Z,40.9
2019-02-03T10:10:18.594Z,23.9
2019-02-03T10:12:19.194Z,41.1
2019-02-03T10:14:18.813Z,41.9
2019-02-03T10:16:18.567Z,41.4
2019-02-03T10:18:19.256Z,33.9
2019-02-03T10:20:18.950Z,38.3
2019-02-03T10:22:18.623Z,34.6
2019-02-03T10:24:19.256Z,23.6
2019-02-03T10:26:19.516Z,29
2019-02-03T10:28:19.169Z,18.3
2019-02-03T10:30:18.812Z,34.7
2019-02-03T10:32:19.418Z,34.3
2019-02-03T10:34:19.046Z,31.8
2019-02-03T10:36:19.084Z,34.1
2019-02-03T10:38:18.742Z,27.6
2019-02-03T10:40:18.832Z,22.9
2019-02-03T10:42:19.444Z,33.6
2019-02-03T10:44:19.060Z,31.6
2019-02-03T10:46:18.835Z,39.1
2019-02-03T10:48:19.454Z,28.9
2019-02-03T10:50:19.096Z,35.6
2019-02-03T10:52:18.741Z,38.8
2019-02-03T10:54:19.386Z,36.9
2019-02-03T10:56:19.395Z,37.8
2019-02-03T10:58:19.127Z,29.4
2019-02-03T11:00:19.238Z,29
2019-02-03T11:02:18.868Z,35.2
2019-02-03T11:04:19.548Z,32.6
2019-02-03T11:06:19.043Z,27.8
2019-02-03T11:08:18.650Z,35.6
2019-02-03T11:10:18.750Z,24.2
2019-02-03T11:12:19.657Z,40.9
2019-02-03T11:14:18.612Z,30.4
2019-02-03T11:16:18.859Z,42.7
2019-02-03T11:18:19.568Z,35.5
2019-02-03T11:20:19.232Z,41.8
2019-02-03T11:22:18.879Z,24.7
2019-02-03T11:24:19.518Z,35
2019-02-03T11:26:19.376Z,26.4
2019-02-03T11:28:19.014Z,32.9
2019-02-03T11:30:18.660Z,36.5
2019-02-03T11:32:19.298Z,28.4
2019-02-03T11:34:18.950Z,32.9
2019-02-03T11:36:18.796Z,48.5
2019-02-03T11:38:19.476Z,28
2019-02-03T11:40:19.556Z,29.5
2019-02-03T11:42:19.436Z,32.7
2019-02-03T11:44:19.273Z,31.5
2019-02-03T11:46:19.523Z,36.6
2019-02-03T11:48:19.181Z,30.7
2019-02-03T11:50:19.106Z,42.5
2019-02-03T11:52:18.969Z,33.6
2019-02-03T11:54:18.579Z,40.7
2019-02-03T11:56:18.924Z,40.7
2019-02-03T11:58:18.821Z,30.8
2019-02-03T12:00:18.797Z,38.6
2019-02-03T12:02:19.404Z,39
2019-02-03T12:04:19.033Z,29.7
2019-02-03T12:06:19.519Z,41.8
2019-02-03T12:08:19.370Z,33.1
2019-02-03T12:10:19.442Z,32.4
2019-02-03T12:12:19.063Z,35.5
2019-02-03T12:14:18.674Z,26.6
2019-02-03T12:16:19.354Z,32.9
2019-02-03T12:18:19.034Z,34.7
2019-02-03T12:20:18.663Z,36.6
2019-02-03T12:22:19.258Z,39.5
2019-02-03T12:24:18.865Z,22.1
2019-02-03T12:26:19.207Z,33.6
2019-02-03T12:28:18.840Z,39
2019-02-03T12:30:19.476Z,38.7
2019-02-03T12:32:19.107Z,34
2019-02-03T12:34:18.716Z,32.7
2019-02-03T12:36:19.446Z,22.7
2019-02-03T12:38:19.062Z,36
2019-02-03T12:40:19.158Z,32.6
2019-02-03T12:42:18.804Z,36.3
2019-02-03T12:44:19.462Z,38.5
2019-02-03T12:46:18.685Z,23.2
2019-02-03T12:48:19.309Z,30
2019-02-03T12:50:18.915Z,27.9
2019-02-03T12:52:19.526Z,28.3
2019-02-03T12:54:19.170Z,32.5
2019-02-03T12:56:18.674Z,23.8
2019-02-03T12:58:19.925Z,33.8
2019-02-03T13:00:19.535Z,33.1
2019-02-03T13:02:19.156Z,30
2019-02-03T13:04:18.783Z,25.4
2019-02-03T13:06:19.051Z,22.6
2019-02-03T13:08:18.681Z,30.4
2019-02-03T13:10:18.771Z,30.4
2019-02-03T13:12:28.037Z,35
2019-02-03T13:14:19.146Z,30.7
2019-02-03T13:16:20.840Z,30.2
2019-02-03T13:18:19.543Z,31.7
2019-02-03T13:20:19.172Z,26.9
2019-02-03T13:22:18.783Z,21.3
2019-02-03T13:24:19.416Z,25.5
2019-02-03T13:26:19.160Z,29.3
2019-02-03T13:28:18.842Z,22
2019-02-03T13:30:19.478Z,26.2
2019-02-03T13:32:22.352Z,26.8
2019-02-03T13:34:19.008Z,30.5
2019-02-03T13:36:19.481Z,26.8
2019-02-03T13:38:19.374Z,23.4
2019-02-03T13:40:19.433Z,20.5
2019-02-03T13:42:19.079Z,27.9
2019-02-03T13:44:21.387Z,29.4
2019-02-03T13:46:18.724Z,21.5
2019-02-03T13:48:19.353Z,21.4
2019-02-03T13:50:19.646Z,23.6
2019-02-03T13:52:19.436Z,9.2
2019-02-03T13:54:19.258Z,28.1
2019-02-03T13:56:19.005Z,34.7
2019-02-03T13:58:18.624Z,41.3
2019-02-03T14:00:19.259Z,33.9
2019-02-03T14:02:18.882Z,25
2019-02-03T14:04:19.520Z,28.4
2019-02-03T14:06:18.800Z,25.7
2019-02-03T14:08:19.463Z,25.6
2019-02-03T14:10:19.534Z,28.2
2019-02-03T14:12:19.143Z,21.4
2019-02-03T14:14:18.767Z,32.1
2019-02-03T14:16:18.716Z,28.3
2019-02-03T14:18:19.389Z,23.1
2019-02-03T14:20:19.015Z,17.6
2019-02-03T14:22:18.639Z,20.8
2019-02-03T14:24:19.266Z,20.8
2019-02-03T14:26:19.110Z,25.6
2019-02-03T14:28:18.742Z,19.9
2019-02-03T14:30:19.381Z,25.7
2019-02-03T14:32:19.005Z,25.4
2019-02-03T14:34:18.616Z,20.9
2019-02-03T14:36:19.377Z,26.6
2019-02-03T14:38:18.978Z,17.2
2019-02-03T14:40:19.050Z,17
2019-02-03T14:42:18.661Z,18.9
2019-02-03T14:44:19.265Z,19.7
2019-02-03T14:46:18.777Z,15.8
2019-02-03T14:48:19.393Z,23.3
2019-02-03T14:50:19.039Z,22
2019-02-03T14:52:18.696Z,15.4
2019-02-03T14:54:19.325Z,23.3
2019-02-03T14:56:18.679Z,21.7
2019-02-03T14:58:19.339Z,20.8
2019-02-03T15:00:18.967Z,16.6
2019-02-03T15:02:18.580Z,23.1
2019-02-03T15:04:19.200Z,18.5
2019-02-03T15:06:18.839Z,19.3
2019-02-03T15:08:19.492Z,12.8
2019-02-03T15:10:18.571Z,17.7
2019-02-03T15:12:19.178Z,14.2
2019-02-03T15:14:19.181Z,23.9
2019-02-03T15:16:18.854Z,23.6
2019-02-03T15:18:19.546Z,20.5
2019-02-03T15:20:19.181Z,22
2019-02-03T15:22:19.005Z,26.1
2019-02-03T15:24:18.738Z,25.4
2019-02-03T15:26:19.006Z,15.2
2019-02-03T15:28:18.617Z,26.1
2019-02-03T15:30:21.455Z,19.7
2019-02-03T15:32:19.431Z,22.2
2019-02-03T15:34:19.045Z,15.6
2019-02-03T15:36:18.884Z,22.9
2019-02-03T15:38:19.515Z,15.4
2019-02-03T15:40:18.580Z,13.3
2019-02-03T15:42:19.227Z,21.4
2019-02-03T15:44:18.840Z,16.3
2019-02-03T15:46:19.554Z,20
2019-02-03T15:48:19.189Z,18
2019-02-03T15:50:18.934Z,17
2019-02-03T15:52:18.546Z,19.7
2019-02-03T15:54:19.224Z,22.8
2019-02-03T15:56:19.529Z,18.7
2019-02-03T15:58:19.191Z,17.1
2019-02-03T16:00:18.827Z,19
2019-02-03T16:02:19.428Z,17.1
2019-02-03T16:04:19.079Z,15.8
2019-02-03T16:06:19.380Z,19.3
2019-02-03T16:08:19.005Z,13.4
2019-02-03T16:10:19.078Z,12.7
2019-02-03T16:12:18.701Z,21.9
2019-02-03T16:14:19.318Z,14.5
2019-02-03T16:16:18.917Z,12.6
2019-02-03T16:18:18.603Z,16.8
2019-02-03T16:20:19.227Z,20.5
2019-02-03T16:22:18.852Z,13.6
2019-02-03T16:24:19.446Z,24.2
2019-02-03T16:26:19.291Z,16.2
2019-02-03T16:28:18.922Z,14
2019-02-03T16:30:19.566Z,22.6
2019-02-03T16:32:19.205Z,4.5
2019-02-03T16:34:18.837Z,17.8
2019-02-03T16:36:19.232Z,17.5
2019-02-03T16:38:23.634Z,13
2019-02-03T16:40:18.764Z,15.5
2019-02-03T16:42:19.374Z,18
2019-02-03T16:44:19.008Z,10.7
2019-02-03T16:46:19.345Z,19
2019-02-03T16:48:19.056Z,14.6
2019-02-03T16:50:18.798Z,21.9
2019-02-03T16:52:19.415Z,17.3
2019-02-03T16:54:19.049Z,16.3
2019-02-03T16:56:18.603Z,10.6
2019-02-03T16:58:19.439Z,14.3
2019-02-03T17:00:19.240Z,9.1
2019-02-03T17:02:18.859Z,1.8
2019-02-03T17:04:19.484Z,10.2
2019-02-03T17:06:19.105Z,18.7
2019-02-03T17:08:19.080Z,14.9
2019-02-03T17:10:19.193Z,11.6
2019-02-03T17:12:18.819Z,12.1
2019-02-03T17:14:19.759Z,8.3
2019-02-03T17:16:19.314Z,11.7
2019-02-03T17:18:18.998Z,12.2
2019-02-03T17:20:18.617Z,11.8
2019-02-03T17:22:19.569Z,13.9
2019-02-03T17:24:19.533Z,11
2019-02-03T17:26:19.305Z,4
2019-02-03T17:28:18.937Z,16.9
2019-02-03T17:30:19.916Z,12
2019-02-03T17:32:18.788Z,11.1
2019-02-03T17:34:19.429Z,14.1
2019-02-03T17:36:18.674Z,15
2019-02-03T17:38:19.681Z,18.8
2019-02-03T17:40:19.111Z,23.7
2019-02-03T17:42:18.969Z,11.6
2019-02-03T17:44:20.466Z,16.2
2019-02-03T17:46:19.273Z,13.3
2019-02-03T17:48:19.268Z,12.5
2019-02-03T17:50:18.914Z,16.2
2019-02-03T17:52:19.655Z,13.7
2019-02-03T17:54:19.664Z,12.5
2019-02-03T17:56:19.275Z,12
2019-02-03T17:58:18.909Z,14.1
2019-02-03T18:00:19.561Z,12.6
2019-02-03T18:02:19.540Z,21.8
2019-02-03T18:04:19.442Z,12.2
2019-02-03T18:06:19.205Z,15
2019-02-03T18:08:18.843Z,13.3
2019-02-03T18:10:19.184Z,12.4
2019-02-03T18:12:19.189Z,13.8
2019-02-03T18:14:25.041Z,11.6
2019-02-03T18:16:19.077Z,22.3
2019-02-03T18:18:18.777Z,34.3
2019-02-03T18:20:19.434Z,9.9
2019-02-03T18:22:19.052Z,8.9
2019-02-03T18:24:18.660Z,15.2
2019-02-03T18:26:19.283Z,15.8
2019-02-03T18:28:19.184Z,21.1
2019-02-03T18:30:18.841Z,9.9
2019-02-03T18:32:19.450Z,11.6
2019-02-03T18:34:19.346Z,16.4
2019-02-03T18:36:19.521Z,15.9
2019-02-03T18:38:19.133Z,11.3
2019-02-03T18:40:19.230Z,17.4
2019-02-03T18:42:18.912Z,22.8
2019-02-03T18:44:19.557Z,12.8
2019-02-03T18:46:18.843Z,13.4
2019-02-03T18:48:19.503Z,12.9
2019-02-03T18:50:19.147Z,10.7
2019-02-03T18:52:18.753Z,11.7
2019-02-03T18:54:19.372Z,13.6
2019-02-03T18:56:18.713Z,9.4
2019-02-03T18:58:19.319Z,11.6
2019-02-03T19:00:18.960Z,25
2019-02-03T19:02:18.588Z,14.2
2019-02-03T19:04:19.190Z,15.3
2019-02-03T19:06:18.936Z,13.1
2019-02-03T19:08:18.661Z,17.2
2019-02-03T19:10:18.766Z,9.4
2019-02-03T19:12:19.389Z,8.1
2019-02-03T19:14:19.254Z,14.2
2019-02-03T19:16:19.507Z,9.1
2019-02-03T19:18:19.260Z,13.2
2019-02-03T19:20:18.927Z,6
2019-02-03T19:22:19.266Z,12.7
2019-02-03T19:24:19.199Z,16.1
2019-02-03T19:26:19.010Z,14.1
2019-02-03T19:28:18.665Z,10.4
2019-02-03T19:30:19.734Z,16.3
2019-02-03T19:32:18.576Z,8.3
2019-02-03T19:34:19.207Z,6.6
2019-02-03T19:36:19.455Z,11.1
2019-02-03T19:38:19.095Z,8.8
2019-02-03T19:40:19.238Z,8.8
2019-02-03T19:42:18.852Z,7.5
2019-02-03T19:44:19.481Z,11.3
2019-02-03T19:46:19.278Z,8
2019-02-03T19:48:18.980Z,7.7
2019-02-03T19:50:18.634Z,7
2019-02-03T19:52:19.275Z,9
2019-02-03T19:54:18.889Z,4.8
2019-02-03T19:56:18.839Z,3.3
2019-02-03T19:58:19.487Z,6.9
2019-02-03T20:00:19.127Z,10.4
2019-02-03T20:02:18.746Z,4.6
2019-02-03T20:04:19.407Z,9
2019-02-03T20:06:18.696Z,8.8
2019-02-03T20:08:19.294Z,5.8
2019-02-03T20:10:19.360Z,3.5
2019-02-03T20:12:19.274Z,3.4
2019-02-03T20:14:18.934Z,3.7
2019-02-03T20:16:19.429Z,6.6
2019-02-03T20:18:19.110Z,5.2
2019-02-03T20:20:18.787Z,2.7
2019-02-03T20:22:19.428Z,4.9
2019-02-03T20:24:19.033Z,7.5
2019-02-03T20:26:18.967Z,5.6
2019-02-03T20:28:18.586Z,2.8
2019-02-03T20:30:19.289Z,3.1
2019-02-03T20:32:18.927Z,6.1
2019-02-03T20:34:19.632Z,3.1
2019-02-03T20:36:19.390Z,3.5
2019-02-03T20:38:19.028Z,3.2
2019-02-03T20:40:19.211Z,6.2
2019-02-03T20:42:18.868Z,4.9
2019-02-03T20:44:19.513Z,5.9
2019-02-03T20:46:18.775Z,2.3
2019-02-03T20:48:19.399Z,4.3
2019-02-03T20:50:19.047Z,2.2
2019-02-03T20:52:18.657Z,3.6
2019-02-03T20:54:19.295Z,3.2
2019-02-03T20:56:19.410Z,3.7
2019-02-03T20:58:19.019Z,5.5
2019-02-03T21:00:18.670Z,3.5
2019-02-03T21:02:19.289Z,2.8
2019-02-03T21:04:18.908Z,9.1
2019-02-03T21:06:19.204Z,2
2019-02-03T21:08:18.825Z,2.7
2019-02-03T21:10:18.889Z,2.9
2019-02-03T21:12:19.540Z,2.5
2019-02-03T21:14:19.197Z,4.8
2019-02-03T21:16:19.205Z,1.5
2019-02-03T21:18:18.891Z,3.1
2019-02-03T21:20:19.543Z,7.4
2019-02-03T21:22:19.203Z,3.1
2019-02-03T21:24:18.856Z,5
2019-02-03T21:26:19.147Z,2.2
2019-02-03T21:28:18.767Z,7
2019-02-03T21:30:19.416Z,4.2
2019-02-03T21:32:19.038Z,2.6
2019-02-03T21:34:18.653Z,3.6
2019-02-03T21:36:19.433Z,2.6
2019-02-03T21:38:19.052Z,2
2019-02-03T21:40:19.115Z,1.6
2019-02-03T21:42:18.736Z,6.7
2019-02-03T21:44:19.343Z,3.4
2019-02-03T21:46:18.702Z,4.7
2019-02-03T21:48:19.324Z,3.4
2019-02-03T21:50:18.965Z,5
2019-02-03T21:52:18.721Z,2.9
2019-02-03T21:54:19.443Z,4.9
2019-02-03T21:56:19.219Z,2.2
2019-02-03T21:58:18.857Z,2
2019-02-03T22:00:19.479Z,1.9
2019-02-03T22:02:19.120Z,5.1
2019-02-03T22:04:18.750Z,4.6
2019-02-03T22:06:18.729Z,1.3
2019-02-03T22:08:19.369Z,1.7
2019-02-03T22:10:19.441Z,1.3
2019-02-03T22:12:19.054Z,2.2
2019-02-03T22:14:18.693Z,4.3
2019-02-03T22:16:19.065Z,3.3
2019-02-03T22:18:18.745Z,2.5
2019-02-03T22:20:19.357Z,3.4
2019-02-03T22:22:18.968Z,2.1
2019-02-03T22:24:18.595Z,2.9
2019-02-03T22:26:18.916Z,1.6
2019-02-03T22:28:19.531Z,4.1
2019-02-03T22:30:19.161Z,4.8
2019-02-03T22:32:18.786Z,3.8
2019-02-03T22:34:19.411Z,2
2019-02-03T22:36:19.261Z,2.5
2019-02-03T22:38:18.883Z,1.7
2019-02-03T22:40:18.938Z,1.7
2019-02-03T22:42:18.575Z,1.8
2019-02-03T22:44:19.184Z,8.2
2019-02-03T22:46:18.995Z,1.7
2019-02-03T22:48:18.625Z,1.9
2019-02-03T22:50:19.236Z,4.2
2019-02-03T22:52:18.853Z,3.7
2019-02-03T22:54:19.476Z,4.4
2019-02-03T22:56:18.943Z,3.1
2019-02-03T22:58:18.545Z,2.6
2019-02-03T23:00:19.186Z,3.3
2019-02-03T23:02:18.910Z,4.2
2019-02-03T23:04:19.527Z,2.8
2019-02-03T23:06:19.333Z,3.6
2019-02-03T23:08:18.944Z,6.4
2019-02-03T23:10:19.039Z,3.5
2019-02-03T23:12:19.371Z,9
2019-02-03T23:14:19.017Z,2.5
2019-02-03T23:16:19.366Z,7.6
2019-02-03T23:18:19.033Z,2.7
2019-02-03T23:20:18.695Z,5.8
2019-02-03T23:22:19.323Z,3.5
2019-02-03T23:24:18.933Z,6.7
2019-02-03T23:26:18.858Z,7.2
2019-02-03T23:28:19.471Z,3.6
2019-02-03T23:30:19.094Z,4.8
2019-02-03T23:32:18.712Z,4.4
2019-02-03T23:34:19.315Z,13
2019-02-03T23:36:19.554Z,7.5
2019-02-03T23:38:19.202Z,7
2019-02-03T23:40:19.269Z,4.1
2019-02-03T23:42:18.902Z,2.8
2019-02-03T23:44:19.528Z,3.4
2019-02-03T23:46:31.442Z,7.9
2019-02-03T23:48:19.242Z,2.7
2019-02-03T23:50:18.886Z,8.3
2019-02-03T23:52:19.486Z,3.2
2019-02-03T23:54:19.098Z,3
2019-02-03T23:56:19.372Z,8
2019-02-03T23:58:18.986Z,3
